Portada
METAR-TAF:

METAR-TAF

Aeropuertos :

Dhahran, Arabia Saudita

latitud: 26-16N, longitud: 050-09E, altitud: 26 m

Observación

El informe se hizo hace 2 horas y 1 minutos, a las 11:00 UTC
Viento 16 kt del este-noreste
Temperatura 31°C
Humedad 16%
Presión 1013 hPa
Visibilidad 10 km o más
sin nubes por debajo de 1500 m y sin presencia de cumulonimbus.

METAR: OEDR 041100Z 06016KT CAVOK 31/02 Q1013

Hora: 16:01 (13:01 UTC)

Pronóstico

El informe se hizo hace 4 horas y 1 minutos, a las 09:00 UTC
Pronóstico válido del 04 a las 12 UTC al 05 a las 18 UTC
Viento 13 kt del norte-noreste
Visibilidad 10 km o más
sin nubes por debajo de 1500 m y sin presencia de cumulonimbus.
Evolucionando progresivamente
del 04 a las 16 UTC al 04 a las 18 UTC
Viento 7 kt del norte-noroeste

TAF: OEDR 040900Z 0412/0518 03013KT CAVOK BECMG 0416/0418 33007KT

Observaciones y pronósticos meteorológicos de más de 4000 aeropuertos (mensajes METAR y TAF).

Los puntos amarillos y rojos representan las estaciones disponibles.

Ponga el ratón en el punto deseado para ver el nombre de la estación.

Haga clic para ver las observaciones y los pronósticos meteorológicos.

Para cambiar el mapa : haga clic en los botones verdes con una cruz de color negro para hacer un zoom, en el botón verde con un guión para alejar o en las flechas verdes para mapas adyacentes.


METAR-TAF: